VIDP/DEL METAR and TAF weather

Enter ICAO airport designator
Station Type Date Time Source
VIDP METAR 2020/01/22 18:00 UTC NOAA

VIDP 221800Z 25004KT 1500 R28/P2000 R29/P2000 BR FEW100 11/10 Q1020 NOSIG


Station Type Date Time Source
VIDP Decoded METAR 2020/01/22 18:00 UTC NOAA

New Delhi / Palam, India (VIDP) 28-34N 077-07E 233M
Jan 22, 2020 - 01:00 PM EST / 2020.01.22 1800 UTC
Wind: from the WSW (250 degrees) at 5 MPH (4 KT):0
Visibility: less than 1 mile:0
Sky conditions: mostly clear
Weather: mist
Temperature: 51 F (11 C)
Dew Point: 50 F (10 C)
Relative Humidity: 93%
Pressure (altimeter): 30.12 in. Hg (1020 hPa)
ob: VIDP 221800Z 25004KT 1500 R28/P2000 R29/P2000 BR FEW100 11/10 Q1020 NOSIG
cycle: 18

Station Type Date Time Source
VIDP TAF 2020/01/22 18:26 UTC NOAA

TAF VIDP 221700Z 2218/2324 26005KT 1200 BR FEW100
BECMG 2300/2302 0200 FG VV///
BECMG 2303/2305 32006KT 0600 MIFG FEW100
BECMG 2308/2310 1500 FU
BECMG 2315/2317 1200 FU BR
BECMG 2321/2323 27004KT 0800 MIFG

Example: see airport list